sensor_id;sensor_type;location;lat;lon;timestamp;P1;durP1;ratioP1;P2;durP2;ratioP2
13090;SDS011;6611;52.604;13.438;2023-08-21T00:00:06;12.10;;;8.90;;
13090;SDS011;6611;52.604;13.438;2023-08-21T00:05:09;10.97;;;8.93;;
13090;SDS011;6611;52.604;13.438;2023-08-21T00:10:12;10.33;;;8.73;;
13090;SDS011;6611;52.604;13.438;2023-08-21T00:15:14;12.27;;;8.97;;
13090;SDS011;6611;52.604;13.438;2023-08-21T00:20:16;13.13;;;9.57;;
13090;SDS011;6611;52.604;13.438;2023-08-21T00:25:20;11.10;;;8.97;;
13090;SDS011;6611;52.604;13.438;2023-08-21T00:30:22;10.97;;;8.93;;
13090;SDS011;6611;52.604;13.438;2023-08-21T00:35:24;10.27;;;8.10;;
13090;SDS011;6611;52.604;13.438;2023-08-21T00:40:27;10.17;;;8.67;;
13090;SDS011;6611;52.604;13.438;2023-08-21T00:45:28;9.30;;;8.13;;
13090;SDS011;6611;52.604;13.438;2023-08-21T00:50:30;11.80;;;8.57;;
13090;SDS011;6611;52.604;13.438;2023-08-21T00:55:33;12.77;;;9.30;;
13090;SDS011;6611;52.604;13.438;2023-08-21T01:00:35;10.00;;;8.37;;
13090;SDS011;6611;52.604;13.438;2023-08-21T01:05:37;12.07;;;8.90;;
13090;SDS011;6611;52.604;13.438;2023-08-21T01:10:42;10.60;;;8.17;;
13090;SDS011;6611;52.604;13.438;2023-08-21T01:15:48;11.53;;;9.13;;
13090;SDS011;6611;52.604;13.438;2023-08-21T01:20:52;11.67;;;9.50;;
13090;SDS011;6611;52.604;13.438;2023-08-21T01:25:55;11.33;;;8.90;;
13090;SDS011;6611;52.604;13.438;2023-08-21T01:30:59;10.57;;;9.00;;
13090;SDS011;6611;52.604;13.438;2023-08-21T01:36:06;11.03;;;9.37;;
13090;SDS011;6611;52.604;13.438;2023-08-21T01:41:10;13.50;;;9.90;;
13090;SDS011;6611;52.604;13.438;2023-08-21T01:46:12;11.07;;;9.13;;
13090;SDS011;6611;52.604;13.438;2023-08-21T01:51:14;10.67;;;9.57;;
13090;SDS011;6611;52.604;13.438;2023-08-21T01:56:17;12.03;;;10.03;;
13090;SDS011;6611;52.604;13.438;2023-08-21T02:01:19;11.83;;;9.80;;
13090;SDS011;6611;52.604;13.438;2023-08-21T02:06:20;10.70;;;8.77;;
13090;SDS011;6611;52.604;13.438;2023-08-21T02:11:24;12.57;;;10.43;;
13090;SDS011;6611;52.604;13.438;2023-08-21T02:16:25;11.43;;;8.77;;
13090;SDS011;6611;52.604;13.438;2023-08-21T02:21:27;12.43;;;9.53;;
13090;SDS011;6611;52.604;13.438;2023-08-21T02:26:31;11.37;;;9.13;;
13090;SDS011;6611;52.604;13.438;2023-08-21T02:31:33;11.03;;;9.20;;
13090;SDS011;6611;52.604;13.438;2023-08-21T02:36:35;11.23;;;8.80;;
13090;SDS011;6611;52.604;13.438;2023-08-21T02:41:38;10.20;;;8.60;;
13090;SDS011;6611;52.604;13.438;2023-08-21T02:46:39;11.57;;;9.40;;
13090;SDS011;6611;52.604;13.438;2023-08-21T02:51:41;9.40;;;8.33;;
13090;SDS011;6611;52.604;13.438;2023-08-21T02:56:44;11.70;;;9.10;;
13090;SDS011;6611;52.604;13.438;2023-08-21T03:01:45;10.40;;;8.90;;
13090;SDS011;6611;52.604;13.438;2023-08-21T03:06:48;10.23;;;8.83;;
13090;SDS011;6611;52.604;13.438;2023-08-21T03:11:51;10.43;;;8.67;;
13090;SDS011;6611;52.604;13.438;2023-08-21T03:16:52;9.00;;;8.10;;
13090;SDS011;6611;52.604;13.438;2023-08-21T03:21:54;10.63;;;8.37;;
13090;SDS011;6611;52.604;13.438;2023-08-21T03:26:57;9.83;;;8.73;;
13090;SDS011;6611;52.604;13.438;2023-08-21T03:31:59;9.87;;;8.37;;
13090;SDS011;6611;52.604;13.438;2023-08-21T03:37:00;10.70;;;8.57;;
13090;SDS011;6611;52.604;13.438;2023-08-21T03:42:04;9.47;;;8.50;;
13090;SDS011;6611;52.604;13.438;2023-08-21T03:47:06;11.57;;;8.50;;
13090;SDS011;6611;52.604;13.438;2023-08-21T03:52:08;9.47;;;7.70;;
13090;SDS011;6611;52.604;13.438;2023-08-21T03:57:11;9.80;;;8.43;;
13090;SDS011;6611;52.604;13.438;2023-08-21T04:02:12;10.40;;;8.60;;
13090;SDS011;6611;52.604;13.438;2023-08-21T04:07:14;9.17;;;8.00;;
13090;SDS011;6611;52.604;13.438;2023-08-21T04:12:17;9.83;;;8.50;;
13090;SDS011;6611;52.604;13.438;2023-08-21T04:17:20;8.60;;;7.70;;
13090;SDS011;6611;52.604;13.438;2023-08-21T04:22:22;9.23;;;7.47;;
13090;SDS011;6611;52.604;13.438;2023-08-21T04:27:25;9.17;;;7.77;;
13090;SDS011;6611;52.604;13.438;2023-08-21T04:32:27;8.80;;;7.90;;
13090;SDS011;6611;52.604;13.438;2023-08-21T04:37:29;8.73;;;7.73;;
13090;SDS011;6611;52.604;13.438;2023-08-21T04:42:32;22.20;;;8.40;;
13090;SDS011;6611;52.604;13.438;2023-08-21T04:47:33;10.53;;;8.37;;
13090;SDS011;6611;52.604;13.438;2023-08-21T04:52:35;10.10;;;8.13;;
13090;SDS011;6611;52.604;13.438;2023-08-21T04:57:38;8.70;;;7.80;;
13090;SDS011;6611;52.604;13.438;2023-08-21T05:02:40;9.67;;;7.70;;
13090;SDS011;6611;52.604;13.438;2023-08-21T05:07:41;10.53;;;7.53;;
13090;SDS011;6611;52.604;13.438;2023-08-21T05:12:44;8.60;;;7.00;;
13090;SDS011;6611;52.604;13.438;2023-08-21T05:17:46;7.77;;;6.97;;
13090;SDS011;6611;52.604;13.438;2023-08-21T05:22:48;8.17;;;6.37;;
13090;SDS011;6611;52.604;13.438;2023-08-21T05:27:51;8.07;;;7.07;;
13090;SDS011;6611;52.604;13.438;2023-08-21T05:32:52;7.50;;;6.60;;
13090;SDS011;6611;52.604;13.438;2023-08-21T05:37:54;8.00;;;6.70;;
13090;SDS011;6611;52.604;13.438;2023-08-21T05:42:57;8.40;;;6.67;;
13090;SDS011;6611;52.604;13.438;2023-08-21T05:47:59;12.50;;;7.77;;
13090;SDS011;6611;52.604;13.438;2023-08-21T05:53:00;8.90;;;6.77;;
13090;SDS011;6611;52.604;13.438;2023-08-21T05:58:04;9.13;;;7.20;;
13090;SDS011;6611;52.604;13.438;2023-08-21T06:03:05;9.20;;;6.53;;
13090;SDS011;6611;52.604;13.438;2023-08-21T06:08:07;8.30;;;6.87;;
13090;SDS011;6611;52.604;13.438;2023-08-21T06:13:10;9.80;;;6.87;;
13090;SDS011;6611;52.604;13.438;2023-08-21T06:18:12;10.17;;;7.43;;
13090;SDS011;6611;52.604;13.438;2023-08-21T06:23:13;9.57;;;6.83;;
13090;SDS011;6611;52.604;13.438;2023-08-21T06:28:17;9.03;;;7.80;;
13090;SDS011;6611;52.604;13.438;2023-08-21T06:33:18;12.70;;;8.20;;
13090;SDS011;6611;52.604;13.438;2023-08-21T06:38:20;10.13;;;7.73;;
13090;SDS011;6611;52.604;13.438;2023-08-21T06:43:24;10.53;;;7.97;;
13090;SDS011;6611;52.604;13.438;2023-08-21T06:48:26;7.45;;;6.75;;
13090;SDS011;6611;52.604;13.438;2023-08-21T06:53:28;9.13;;;6.60;;
13090;SDS011;6611;52.604;13.438;2023-08-21T06:58:31;9.23;;;7.03;;
13090;SDS011;6611;52.604;13.438;2023-08-21T07:03:32;10.95;;;7.10;;
13090;SDS011;6611;52.604;13.438;2023-08-21T07:08:34;8.40;;;7.05;;
13090;SDS011;6611;52.604;13.438;2023-08-21T07:13:38;9.45;;;7.22;;
13090;SDS011;6611;52.604;13.438;2023-08-21T07:18:40;8.02;;;7.13;;
13090;SDS011;6611;52.604;13.438;2023-08-21T07:23:42;6.75;;;6.05;;
13090;SDS011;6611;52.604;13.438;2023-08-21T07:28:45;6.07;;;5.47;;
13090;SDS011;6611;52.604;13.438;2023-08-21T07:33:46;6.97;;;6.28;;
13090;SDS011;6611;52.604;13.438;2023-08-21T07:38:48;8.07;;;6.10;;
13090;SDS011;6611;52.604;13.438;2023-08-21T07:43:51;5.97;;;4.82;;
13090;SDS011;6611;52.604;13.438;2023-08-21T07:48:53;6.80;;;4.72;;
13090;SDS011;6611;52.604;13.438;2023-08-21T07:53:55;6.15;;;4.35;;
13090;SDS011;6611;52.604;13.438;2023-08-21T07:58:58;4.15;;;3.45;;
13090;SDS011;6611;52.604;13.438;2023-08-21T08:04:00;4.82;;;3.67;;
13090;SDS011;6611;52.604;13.438;2023-08-21T08:09:01;5.47;;;3.97;;
13090;SDS011;6611;52.604;13.438;2023-08-21T08:14:06;4.15;;;3.42;;
13090;SDS011;6611;52.604;13.438;2023-08-21T08:19:07;4.20;;;3.17;;
13090;SDS011;6611;52.604;13.438;2023-08-21T08:24:09;3.55;;;2.75;;
13090;SDS011;6611;52.604;13.438;2023-08-21T08:29:12;3.63;;;2.22;;
13090;SDS011;6611;52.604;13.438;2023-08-21T08:34:14;2.33;;;1.85;;
13090;SDS011;6611;52.604;13.438;2023-08-21T08:39:18;5.95;;;1.67;;
13090;SDS011;6611;52.604;13.438;2023-08-21T08:44:21;2.50;;;1.50;;
13090;SDS011;6611;52.604;13.438;2023-08-21T08:49:26;1.73;;;1.40;;
13090;SDS011;6611;52.604;13.438;2023-08-21T08:54:28;1.88;;;1.40;;
13090;SDS011;6611;52.604;13.438;2023-08-21T08:59:32;2.47;;;1.38;;
13090;SDS011;6611;52.604;13.438;2023-08-21T09:04:34;2.60;;;1.13;;
13090;SDS011;6611;52.604;13.438;2023-08-21T09:09:39;2.25;;;0.80;;
13090;SDS011;6611;52.604;13.438;2023-08-21T09:14:42;2.65;;;1.30;;
13090;SDS011;6611;52.604;13.438;2023-08-21T09:19:45;2.65;;;1.30;;
13090;SDS011;6611;52.604;13.438;2023-08-21T09:24:59;2.35;;;1.10;;
13090;SDS011;6611;52.604;13.438;2023-08-21T09:30:08;2.72;;;1.10;;
13090;SDS011;6611;52.604;13.438;2023-08-21T09:35:13;2.00;;;1.10;;
13090;SDS011;6611;52.604;13.438;2023-08-21T09:40:16;1.67;;;1.10;;
13090;SDS011;6611;52.604;13.438;2023-08-21T09:45:21;3.00;;;1.10;;
13090;SDS011;6611;52.604;13.438;2023-08-21T09:50:23;2.17;;;1.20;;
13090;SDS011;6611;52.604;13.438;2023-08-21T09:55:26;1.63;;;1.00;;
13090;SDS011;6611;52.604;13.438;2023-08-21T10:00:31;2.53;;;1.10;;
13090;SDS011;6611;52.604;13.438;2023-08-21T10:05:36;2.15;;;1.23;;
13090;SDS011;6611;52.604;13.438;2023-08-21T10:10:39;2.03;;;1.20;;
13090;SDS011;6611;52.604;13.438;2023-08-21T10:15:42;5.47;;;1.50;;
13090;SDS011;6611;52.604;13.438;2023-08-21T10:20:44;2.72;;;0.95;;
13090;SDS011;6611;52.604;13.438;2023-08-21T10:25:47;1.67;;;0.80;;
13090;SDS011;6611;52.604;13.438;2023-08-21T10:30:50;1.85;;;0.85;;
13090;SDS011;6611;52.604;13.438;2023-08-21T10:35:52;2.35;;;1.33;;
13090;SDS011;6611;52.604;13.438;2023-08-21T10:41:03;2.05;;;1.17;;
13090;SDS011;6611;52.604;13.438;2023-08-21T10:46:07;1.45;;;0.90;;
13090;SDS011;6611;52.604;13.438;2023-08-21T10:51:09;1.33;;;0.90;;
13090;SDS011;6611;52.604;13.438;2023-08-21T10:56:12;2.08;;;1.10;;
13090;SDS011;6611;52.604;13.438;2023-08-21T11:01:15;0.85;;;0.80;;
13090;SDS011;6611;52.604;13.438;2023-08-21T11:06:18;2.42;;;1.20;;
13090;SDS011;6611;52.604;13.438;2023-08-21T11:11:20;1.67;;;1.08;;
13090;SDS011;6611;52.604;13.438;2023-08-21T11:16:24;2.53;;;1.10;;
13090;SDS011;6611;52.604;13.438;2023-08-21T11:21:26;3.25;;;1.00;;
13090;SDS011;6611;52.604;13.438;2023-08-21T11:26:27;4.60;;;1.30;;
13090;SDS011;6611;52.604;13.438;2023-08-21T11:31:30;2.30;;;1.02;;
13090;SDS011;6611;52.604;13.438;2023-08-21T11:36:32;3.13;;;0.90;;
13090;SDS011;6611;52.604;13.438;2023-08-21T11:46:55;3.20;;;0.98;;
13090;SDS011;6611;52.604;13.438;2023-08-21T11:51:57;1.65;;;0.80;;
13090;SDS011;6611;52.604;13.438;2023-08-21T11:56:59;2.83;;;1.02;;
13090;SDS011;6611;52.604;13.438;2023-08-21T12:02:07;5.07;;;1.00;;
13090;SDS011;6611;52.604;13.438;2023-08-21T12:07:10;1.02;;;0.80;;
13090;SDS011;6611;52.604;13.438;2023-08-21T12:12:13;2.42;;;0.90;;
13090;SDS011;6611;52.604;13.438;2023-08-21T12:17:16;3.17;;;1.00;;
13090;SDS011;6611;52.604;13.438;2023-08-21T12:22:18;2.13;;;1.00;;
13090;SDS011;6611;52.604;13.438;2023-08-21T12:27:19;1.25;;;0.98;;
13090;SDS011;6611;52.604;13.438;2023-08-21T12:32:23;1.95;;;0.95;;
13090;SDS011;6611;52.604;13.438;2023-08-21T12:37:25;4.47;;;1.30;;
13090;SDS011;6611;52.604;13.438;2023-08-21T12:42:27;1.75;;;0.95;;
13090;SDS011;6611;52.604;13.438;2023-08-21T12:47:30;1.35;;;0.80;;
13090;SDS011;6611;52.604;13.438;2023-08-21T12:52:31;2.85;;;0.80;;
13090;SDS011;6611;52.604;13.438;2023-08-21T12:57:33;3.35;;;0.85;;
13090;SDS011;6611;52.604;13.438;2023-08-21T13:02:36;3.65;;;1.20;;
13090;SDS011;6611;52.604;13.438;2023-08-21T13:07:37;1.88;;;0.90;;
13090;SDS011;6611;52.604;13.438;2023-08-21T13:12:39;1.17;;;0.63;;
13090;SDS011;6611;52.604;13.438;2023-08-21T13:17:42;2.17;;;0.70;;
13090;SDS011;6611;52.604;13.438;2023-08-21T13:22:45;1.75;;;0.73;;
13090;SDS011;6611;52.604;13.438;2023-08-21T13:27:48;2.47;;;1.05;;
13090;SDS011;6611;52.604;13.438;2023-08-21T13:32:51;2.53;;;0.73;;
13090;SDS011;6611;52.604;13.438;2023-08-21T13:37:54;2.60;;;0.80;;
13090;SDS011;6611;52.604;13.438;2023-08-21T13:42:56;0.73;;;0.70;;
13090;SDS011;6611;52.604;13.438;2023-08-21T13:47:59;3.90;;;1.23;;
13090;SDS011;6611;52.604;13.438;2023-08-21T13:53:01;2.30;;;0.90;;
13090;SDS011;6611;52.604;13.438;2023-08-21T13:58:03;2.13;;;1.10;;
13090;SDS011;6611;52.604;13.438;2023-08-21T14:03:06;2.08;;;0.73;;
13090;SDS011;6611;52.604;13.438;2023-08-21T14:08:07;1.15;;;0.65;;
13090;SDS011;6611;52.604;13.438;2023-08-21T14:13:09;1.42;;;0.80;;
13090;SDS011;6611;52.604;13.438;2023-08-21T14:18:13;1.80;;;0.80;;
13090;SDS011;6611;52.604;13.438;2023-08-21T14:23:14;2.90;;;0.80;;
13090;SDS011;6611;52.604;13.438;2023-08-21T14:28:16;2.50;;;0.90;;
13090;SDS011;6611;52.604;13.438;2023-08-21T14:33:19;1.83;;;0.75;;
13090;SDS011;6611;52.604;13.438;2023-08-21T14:38:21;2.28;;;0.75;;
13090;SDS011;6611;52.604;13.438;2023-08-21T14:43:22;2.10;;;0.80;;
13090;SDS011;6611;52.604;13.438;2023-08-21T14:48:26;1.95;;;0.80;;
13090;SDS011;6611;52.604;13.438;2023-08-21T14:53:27;1.08;;;0.90;;
13090;SDS011;6611;52.604;13.438;2023-08-21T14:58:29;2.38;;;0.88;;
13090;SDS011;6611;52.604;13.438;2023-08-21T15:03:32;1.75;;;1.17;;
13090;SDS011;6611;52.604;13.438;2023-08-21T15:08:34;1.08;;;0.68;;
13090;SDS011;6611;52.604;13.438;2023-08-21T15:13:36;2.05;;;1.05;;
13090;SDS011;6611;52.604;13.438;2023-08-21T15:18:39;1.70;;;0.75;;
13090;SDS011;6611;52.604;13.438;2023-08-21T15:23:41;1.58;;;0.77;;
13090;SDS011;6611;52.604;13.438;2023-08-21T15:28:43;0.82;;;0.63;;
13090;SDS011;6611;52.604;13.438;2023-08-21T15:33:46;1.90;;;0.57;;
13090;SDS011;6611;52.604;13.438;2023-08-21T15:38:49;1.42;;;0.80;;
13090;SDS011;6611;52.604;13.438;2023-08-21T15:43:50;3.15;;;1.00;;
13090;SDS011;6611;52.604;13.438;2023-08-21T15:48:53;2.03;;;1.00;;
13090;SDS011;6611;52.604;13.438;2023-08-21T15:53:56;1.23;;;0.75;;
13090;SDS011;6611;52.604;13.438;2023-08-21T15:58:58;2.60;;;1.05;;
13090;SDS011;6611;52.604;13.438;2023-08-21T16:04:01;3.72;;;1.20;;
13090;SDS011;6611;52.604;13.438;2023-08-21T16:09:03;1.75;;;1.08;;
13090;SDS011;6611;52.604;13.438;2023-08-21T16:14:04;2.88;;;1.15;;
13090;SDS011;6611;52.604;13.438;2023-08-21T16:19:09;2.13;;;1.05;;
13090;SDS011;6611;52.604;13.438;2023-08-21T16:24:10;2.25;;;1.13;;
13090;SDS011;6611;52.604;13.438;2023-08-21T16:29:12;1.90;;;0.88;;
13090;SDS011;6611;52.604;13.438;2023-08-21T16:34:18;2.05;;;0.90;;
13090;SDS011;6611;52.604;13.438;2023-08-21T16:39:20;1.60;;;1.13;;
13090;SDS011;6611;52.604;13.438;2023-08-21T16:44:21;3.03;;;0.90;;
13090;SDS011;6611;52.604;13.438;2023-08-21T16:49:24;8.45;;;1.20;;
13090;SDS011;6611;52.604;13.438;2023-08-21T16:54:26;2.42;;;0.93;;
13090;SDS011;6611;52.604;13.438;2023-08-21T16:59:28;1.35;;;0.80;;
13090;SDS011;6611;52.604;13.438;2023-08-21T17:04:31;1.75;;;0.93;;
13090;SDS011;6611;52.604;13.438;2023-08-21T17:09:33;2.42;;;1.15;;
13090;SDS011;6611;52.604;13.438;2023-08-21T17:14:35;1.85;;;0.90;;
13090;SDS011;6611;52.604;13.438;2023-08-21T17:19:38;2.25;;;1.00;;
13090;SDS011;6611;52.604;13.438;2023-08-21T17:24:39;1.85;;;1.00;;
13090;SDS011;6611;52.604;13.438;2023-08-21T17:29:41;1.80;;;0.77;;
13090;SDS011;6611;52.604;13.438;2023-08-21T17:34:44;1.42;;;0.95;;
13090;SDS011;6611;52.604;13.438;2023-08-21T17:39:45;1.83;;;1.10;;
13090;SDS011;6611;52.604;13.438;2023-08-21T17:44:47;1.80;;;1.00;;
13090;SDS011;6611;52.604;13.438;2023-08-21T17:49:50;2.53;;;1.10;;
13090;SDS011;6611;52.604;13.438;2023-08-21T17:54:52;2.10;;;1.10;;
13090;SDS011;6611;52.604;13.438;2023-08-21T17:59:53;2.00;;;1.03;;
13090;SDS011;6611;52.604;13.438;2023-08-21T18:04:56;1.77;;;1.10;;
13090;SDS011;6611;52.604;13.438;2023-08-21T18:09:58;1.30;;;1.00;;
13090;SDS011;6611;52.604;13.438;2023-08-21T18:15:01;3.27;;;1.13;;
13090;SDS011;6611;52.604;13.438;2023-08-21T18:20:05;2.53;;;1.27;;
13090;SDS011;6611;52.604;13.438;2023-08-21T18:25:07;3.43;;;1.40;;
13090;SDS011;6611;52.604;13.438;2023-08-21T18:30:17;2.63;;;1.10;;
13090;SDS011;6611;52.604;13.438;2023-08-21T18:35:20;3.33;;;1.27;;
13090;SDS011;6611;52.604;13.438;2023-08-21T18:40:22;2.43;;;1.20;;
13090;SDS011;6611;52.604;13.438;2023-08-21T18:45:24;1.80;;;1.00;;
13090;SDS011;6611;52.604;13.438;2023-08-21T18:50:34;2.47;;;1.40;;
13090;SDS011;6611;52.604;13.438;2023-08-21T18:55:37;2.60;;;1.50;;
13090;SDS011;6611;52.604;13.438;2023-08-21T19:00:39;2.37;;;1.30;;
13090;SDS011;6611;52.604;13.438;2023-08-21T19:05:43;1.60;;;1.17;;
13090;SDS011;6611;52.604;13.438;2023-08-21T19:10:45;2.67;;;1.33;;
13090;SDS011;6611;52.604;13.438;2023-08-21T19:15:47;2.53;;;1.37;;
13090;SDS011;6611;52.604;13.438;2023-08-21T19:20:50;2.13;;;1.23;;
13090;SDS011;6611;52.604;13.438;2023-08-21T19:25:52;2.33;;;1.33;;
13090;SDS011;6611;52.604;13.438;2023-08-21T19:30:53;1.77;;;1.13;;
13090;SDS011;6611;52.604;13.438;2023-08-21T19:35:56;2.87;;;1.30;;
13090;SDS011;6611;52.604;13.438;2023-08-21T19:40:58;1.63;;;1.20;;
13090;SDS011;6611;52.604;13.438;2023-08-21T19:46:00;2.33;;;1.53;;
13090;SDS011;6611;52.604;13.438;2023-08-21T19:51:03;2.20;;;1.47;;
13090;SDS011;6611;52.604;13.438;2023-08-21T19:56:05;2.53;;;1.40;;
13090;SDS011;6611;52.604;13.438;2023-08-21T20:01:06;2.50;;;1.80;;
13090;SDS011;6611;52.604;13.438;2023-08-21T20:06:09;2.40;;;1.70;;
13090;SDS011;6611;52.604;13.438;2023-08-21T20:11:12;2.83;;;1.63;;
13090;SDS011;6611;52.604;13.438;2023-08-21T20:16:14;2.23;;;1.67;;
13090;SDS011;6611;52.604;13.438;2023-08-21T20:21:17;6.23;;;1.70;;
13090;SDS011;6611;52.604;13.438;2023-08-21T20:26:21;4.00;;;1.83;;
13090;SDS011;6611;52.604;13.438;2023-08-21T20:31:24;4.03;;;1.87;;
13090;SDS011;6611;52.604;13.438;2023-08-21T20:36:27;7.03;;;2.20;;
13090;SDS011;6611;52.604;13.438;2023-08-21T20:41:29;2.43;;;1.97;;
13090;SDS011;6611;52.604;13.438;2023-08-21T20:46:32;5.03;;;2.60;;
13090;SDS011;6611;52.604;13.438;2023-08-21T20:51:35;3.93;;;2.40;;
13090;SDS011;6611;52.604;13.438;2023-08-21T20:56:36;3.23;;;2.30;;
13090;SDS011;6611;52.604;13.438;2023-08-21T21:01:38;3.63;;;1.97;;
13090;SDS011;6611;52.604;13.438;2023-08-21T21:06:41;3.00;;;2.00;;
13090;SDS011;6611;52.604;13.438;2023-08-21T21:11:43;6.07;;;2.00;;
13090;SDS011;6611;52.604;13.438;2023-08-21T21:16:45;3.93;;;1.80;;
13090;SDS011;6611;52.604;13.438;2023-08-21T21:21:48;3.47;;;1.63;;
13090;SDS011;6611;52.604;13.438;2023-08-21T21:26:50;2.77;;;1.50;;
13090;SDS011;6611;52.604;13.438;2023-08-21T21:31:52;3.60;;;1.80;;
13090;SDS011;6611;52.604;13.438;2023-08-21T21:36:56;2.43;;;1.83;;
13090;SDS011;6611;52.604;13.438;2023-08-21T21:41:57;2.33;;;1.83;;
13090;SDS011;6611;52.604;13.438;2023-08-21T21:46:59;3.67;;;1.60;;
13090;SDS011;6611;52.604;13.438;2023-08-21T21:52:02;7.07;;;1.70;;
13090;SDS011;6611;52.604;13.438;2023-08-21T21:57:04;3.20;;;1.50;;
13090;SDS011;6611;52.604;13.438;2023-08-21T22:02:06;3.80;;;1.43;;
13090;SDS011;6611;52.604;13.438;2023-08-21T22:07:10;2.33;;;1.60;;
13090;SDS011;6611;52.604;13.438;2023-08-21T22:12:13;2.33;;;1.40;;
13090;SDS011;6611;52.604;13.438;2023-08-21T22:17:15;2.97;;;1.33;;
13090;SDS011;6611;52.604;13.438;2023-08-21T22:22:18;3.23;;;1.57;;
13090;SDS011;6611;52.604;13.438;2023-08-21T22:27:20;2.10;;;1.20;;
13090;SDS011;6611;52.604;13.438;2023-08-21T22:32:22;3.03;;;1.90;;
13090;SDS011;6611;52.604;13.438;2023-08-21T22:37:25;2.50;;;1.60;;
13090;SDS011;6611;52.604;13.438;2023-08-21T22:42:27;2.67;;;1.80;;
13090;SDS011;6611;52.604;13.438;2023-08-21T22:47:29;1.47;;;1.30;;
13090;SDS011;6611;52.604;13.438;2023-08-21T22:52:32;2.23;;;1.57;;
13090;SDS011;6611;52.604;13.438;2023-08-21T22:57:33;4.00;;;1.63;;
13090;SDS011;6611;52.604;13.438;2023-08-21T23:02:35;2.50;;;1.90;;
13090;SDS011;6611;52.604;13.438;2023-08-21T23:07:38;4.73;;;1.87;;
13090;SDS011;6611;52.604;13.438;2023-08-21T23:12:40;4.03;;;2.10;;
13090;SDS011;6611;52.604;13.438;2023-08-21T23:17:41;2.87;;;1.50;;
13090;SDS011;6611;52.604;13.438;2023-08-21T23:22:44;1.83;;;1.47;;
13090;SDS011;6611;52.604;13.438;2023-08-21T23:27:46;3.33;;;1.70;;
13090;SDS011;6611;52.604;13.438;2023-08-21T23:32:48;2.77;;;1.90;;
13090;SDS011;6611;52.604;13.438;2023-08-21T23:37:51;3.27;;;1.90;;
13090;SDS011;6611;52.604;13.438;2023-08-21T23:42:53;5.83;;;1.97;;
13090;SDS011;6611;52.604;13.438;2023-08-21T23:47:55;3.87;;;1.90;;
13090;SDS011;6611;52.604;13.438;2023-08-21T23:52:58;5.10;;;1.80;;
13090;SDS011;6611;52.604;13.438;2023-08-21T23:58:03;4.80;;;2.40;;
